KTPL/TPL METAR and TAF weather

Enter ICAO airport designator
Station Type Date Time Source
KTPL METAR 2024/04/17 17:51 UTC NOAA

KTPL 171751Z AUTO VRB04KT 7SM SCT010 SCT037 26/23 A2998 RMK AO2 SLP140 T02560228 10256 20211 58002


Station Type Date Time Source
KTPL Decoded METAR 2024/04/17 17:51 UTC NOAA

Temple, Draughon-Miller Central Texas Regional Airport, TX, United States (KTPL) 31-09N 097-24W
Apr 17, 2024 - 01:51 PM EDT / 2024.04.17 1751 UTC
Wind: Variable at 5 MPH (4 KT):0
Visibility: 7 mile(s):0
Sky conditions: partly cloudy
Temperature: 78.1 F (25.6 C)
Dew Point: 73.0 F (22.8 C)
Relative Humidity: 84%
Pressure (altimeter): 29.98 in. Hg (1015 hPa)
Pressure tendency: 0.01 inches (0.2 hPa) lower than three hours ago
ob: KTPL 171751Z AUTO VRB04KT 7SM SCT010 SCT037 26/23 A2998 RMK AO2 SLP140 T02560228 10256 20211 58002
cycle: 18

Station Type Date Time Source
KTPL TAF UTC NOAA

Error!

Example: see airport list